Detall de PIREP

Printer-friendly versionPDF version

[2013/04/07 08:44:00]
Flight IATA:CT2111
Pilot Number:041
Company ICAO:CAT
Aircraft Type:MD11/E
PAX:254
Aircraft Registration:PAX
Departing Airport: LEST
Destination Airport: LEVC
Alternate Airport:LEBL
Online: VATSIM
Route:DCT FORNO UN733 ZMR UL155 NVS UM191 PDT UM871 ABOSI DCT
Flight Level:F340
No Slew and time accel
No pause
Crash detect
Detect pilot in Cockpit between each 30 and 45 minutes
08:44 Zero fuel Weight: 377796 Lbs, Fuel Weight: 35008 Lbs
08:44 VATSIM:LEST 070830Z 18011KT 140V210 6000 RA SCT018 BKN037 06/05 Q1016 TEMPO 3000 RA BKN010
08:44 VATSIM:LEVC 070830Z 22003KT 190V260 CAVOK 12/01 Q1017 NOSIG
08:44 VOICE CATALONIAN
08:53 Parking Brakes off
09:02 Take-off
09:02 Take off Weight: 411526 Lbs
09:02 Wind: 176º @ 006 Knots Heading: 165º
09:02 POS N42º 53´ 55´´ W008º 24´ 57´´
09:02 Gear Up: 181 Knots
09:02 Flaps:4 at 181 Knots
09:02 Flaps:3 at 192 Knots
09:02 Flaps:4 at 194 Knots
09:02 Flaps:3 at 201 Knots
09:02 Flaps:4 at 201 Knots
09:02 Flaps:3 at 201 Knots
09:02 Flaps:4 at 200 Knots
09:03 Flaps:1 at 160 Knots
09:03 Flaps:4 at 158 Knots
09:03 Flaps:3 at 157 Knots
09:03 Flaps:2 at 156 Knots
09:03 Flaps:1 at 156 Knots
09:03 Flaps:0 at 161 Knots
09:13 TOC
09:13 Fuel Weight: 26229 Lb
09:17 Wind:259º@057 Knots Heading: 129º Ground Speed: 500 Knots Altitude 34110 ft
09:32 Wind:275º@060 Knots Heading: 143º Ground Speed: 507 Knots Altitude 34163 ft
09:45 TOD
09:45 Fuel Weight: 18595 Lb
09:47 Wind:283º@046 Knots Heading: 107º Ground Speed: 486 Knots Altitude 28179 ft
09:59 Flaps:1 at 251 Knots
10:00 Flaps:2 at 254 Knots
10:00 Flaps:3 at 254 Knots
10:02 Wind:350º@008 Knots Heading: 013º Ground Speed: 187 Knots Altitude 3241 ft
10:03 Flaps:4 at 174 Knots
10:03 Flaps:3 at 173 Knots
10:03 Flaps:4 at 173 Knots
10:03 Flaps:5 at 172 Knots
10:03 Flaps:6 at 171 Knots
10:04 Gear Down: 153 Knots
10:05 Flaps:7 at 154 Knots
10:05 Flaps:6 at 155 Knots
10:05 Flaps:7 at 155 Knots
10:07 Flaps:6 at 151 Knots
10:07 Flaps:7 at 151 Knots
10:07 Flaps:6 at 151 Knots
10:07 Flaps:7 at 151 Knots
10:07 Flaps:6 at 151 Knots
10:07 Flaps:7 at 151 Knots
10:07 Flaps:6 at 149 Knots
10:07 Flaps:7 at 148 Knots
10:07 TouchDown:Rate -251 ft/min Speed: 145 Knots
10:07 Flaps:6 at 144 Knots
10:07 Flaps:7 at 139 Knots
10:07 VATSIM:LEVC 070930Z 21003KT 170V260 CAVOK 14/02 Q1017 NOSIG
10:07 Land
10:07 Wind:253º@007 Knots
10:07 Heading: 296º
10:07 Flight Duration: 01:05
10:07 Landing Weight: 392660 Lbs
10:07 POS N39º 29´ 19´´ W000º 28´ 49´´
10:11 Parking brakes on
10:11 Block to Block Duration: 01:18
10:11 Final Fuel: 14545 Lbls
10:11 Spent Fuel: 20463 Lbls
10:11 Flight Length: 461 NM
10:11 TOD Land Length: 114 NM

Exportar CSV

Powered by Drupal - Modified by Danger4k